sensor_id;sensor_type;location;lat;lon;timestamp;temperature;humidity
43810;DHT22;29440;48.208;11.162;2022-07-19T00:01:27;19.30;75.00
43810;DHT22;29440;48.208;11.162;2022-07-19T00:03:53;19.20;75.00
43810;DHT22;29440;48.208;11.162;2022-07-19T00:06:18;19.20;74.90
43810;DHT22;29440;48.208;11.162;2022-07-19T00:08:44;19.20;75.40
43810;DHT22;29440;48.208;11.162;2022-07-19T00:11:09;19.10;75.30
43810;DHT22;29440;48.208;11.162;2022-07-19T00:13:35;19.10;75.00
43810;DHT22;29440;48.208;11.162;2022-07-19T00:16:01;19.10;74.50
43810;DHT22;29440;48.208;11.162;2022-07-19T00:18:26;19.00;74.10
43810;DHT22;29440;48.208;11.162;2022-07-19T00:20:52;19.00;75.10
43810;DHT22;29440;48.208;11.162;2022-07-19T00:23:17;19.00;74.10
43810;DHT22;29440;48.208;11.162;2022-07-19T00:25:43;18.90;75.40
43810;DHT22;29440;48.208;11.162;2022-07-19T00:28:08;18.90;74.70
43810;DHT22;29440;48.208;11.162;2022-07-19T00:30:34;18.90;74.80
43810;DHT22;29440;48.208;11.162;2022-07-19T00:32:59;18.80;76.10
43810;DHT22;29440;48.208;11.162;2022-07-19T00:35:26;18.80;76.20
43810;DHT22;29440;48.208;11.162;2022-07-19T00:37:52;18.80;76.30
43810;DHT22;29440;48.208;11.162;2022-07-19T00:40:23;18.70;75.70
43810;DHT22;29440;48.208;11.162;2022-07-19T00:42:52;18.70;76.30
43810;DHT22;29440;48.208;11.162;2022-07-19T00:45:20;18.70;76.60
43810;DHT22;29440;48.208;11.162;2022-07-19T00:47:46;18.60;80.20
43810;DHT22;29440;48.208;11.162;2022-07-19T00:50:11;18.50;82.60
43810;DHT22;29440;48.208;11.162;2022-07-19T00:52:38;18.50;81.10
43810;DHT22;29440;48.208;11.162;2022-07-19T00:55:05;18.40;81.50
43810;DHT22;29440;48.208;11.162;2022-07-19T00:57:32;18.30;83.40
43810;DHT22;29440;48.208;11.162;2022-07-19T00:59:58;18.20;83.50
43810;DHT22;29440;48.208;11.162;2022-07-19T01:02:24;18.10;84.30
43810;DHT22;29440;48.208;11.162;2022-07-19T01:04:51;18.10;84.80
43810;DHT22;29440;48.208;11.162;2022-07-19T01:07:17;18.00;83.30
43810;DHT22;29440;48.208;11.162;2022-07-19T01:09:42;18.00;82.20
43810;DHT22;29440;48.208;11.162;2022-07-19T01:12:09;18.00;83.10
43810;DHT22;29440;48.208;11.162;2022-07-19T01:14:34;18.00;83.30
43810;DHT22;29440;48.208;11.162;2022-07-19T01:17:03;18.10;83.50
43810;DHT22;29440;48.208;11.162;2022-07-19T01:19:29;18.00;82.80
43810;DHT22;29440;48.208;11.162;2022-07-19T01:21:55;17.90;81.70
43810;DHT22;29440;48.208;11.162;2022-07-19T01:24:20;17.90;81.50
43810;DHT22;29440;48.208;11.162;2022-07-19T01:26:46;17.90;82.00
43810;DHT22;29440;48.208;11.162;2022-07-19T01:29:15;17.90;82.00
43810;DHT22;29440;48.208;11.162;2022-07-19T01:31:41;17.90;82.00
43810;DHT22;29440;48.208;11.162;2022-07-19T01:34:07;17.80;84.20
43810;DHT22;29440;48.208;11.162;2022-07-19T01:36:33;17.80;84.30
43810;DHT22;29440;48.208;11.162;2022-07-19T01:38:59;17.80;82.80
43810;DHT22;29440;48.208;11.162;2022-07-19T01:41:24;17.80;84.00
43810;DHT22;29440;48.208;11.162;2022-07-19T01:43:50;17.70;83.60
43810;DHT22;29440;48.208;11.162;2022-07-19T01:46:16;17.60;85.90
43810;DHT22;29440;48.208;11.162;2022-07-19T01:48:41;17.50;88.60
43810;DHT22;29440;48.208;11.162;2022-07-19T01:51:07;17.60;85.70
43810;DHT22;29440;48.208;11.162;2022-07-19T01:53:33;17.50;84.60
43810;DHT22;29440;48.208;11.162;2022-07-19T01:55:58;17.50;84.40
43810;DHT22;29440;48.208;11.162;2022-07-19T01:58:24;17.50;85.30
43810;DHT22;29440;48.208;11.162;2022-07-19T02:00:50;17.40;86.60
43810;DHT22;29440;48.208;11.162;2022-07-19T02:03:16;17.30;89.30
43810;DHT22;29440;48.208;11.162;2022-07-19T02:05:43;17.20;90.20
43810;DHT22;29440;48.208;11.162;2022-07-19T02:08:09;17.20;89.30
43810;DHT22;29440;48.208;11.162;2022-07-19T02:10:35;17.10;91.30
43810;DHT22;29440;48.208;11.162;2022-07-19T02:13:00;17.00;92.30
43810;DHT22;29440;48.208;11.162;2022-07-19T02:15:26;16.90;92.30
43810;DHT22;29440;48.208;11.162;2022-07-19T02:17:52;16.80;92.20
43810;DHT22;29440;48.208;11.162;2022-07-19T02:20:18;16.80;91.00
43810;DHT22;29440;48.208;11.162;2022-07-19T02:22:43;16.70;90.60
43810;DHT22;29440;48.208;11.162;2022-07-19T02:25:09;16.70;90.50
43810;DHT22;29440;48.208;11.162;2022-07-19T02:27:35;16.60;90.90
43810;DHT22;29440;48.208;11.162;2022-07-19T02:30:01;16.60;90.60
43810;DHT22;29440;48.208;11.162;2022-07-19T02:32:26;16.60;90.90
43810;DHT22;29440;48.208;11.162;2022-07-19T02:34:52;16.60;91.40
43810;DHT22;29440;48.208;11.162;2022-07-19T02:37:17;16.70;91.50
43810;DHT22;29440;48.208;11.162;2022-07-19T02:39:43;16.70;91.30
43810;DHT22;29440;48.208;11.162;2022-07-19T02:42:08;16.70;92.10
43810;DHT22;29440;48.208;11.162;2022-07-19T02:44:34;16.70;92.40
43810;DHT22;29440;48.208;11.162;2022-07-19T02:46:59;16.60;93.10
43810;DHT22;29440;48.208;11.162;2022-07-19T02:49:25;16.60;92.40
43810;DHT22;29440;48.208;11.162;2022-07-19T02:51:51;16.60;92.30
43810;DHT22;29440;48.208;11.162;2022-07-19T02:54:16;16.60;91.40
43810;DHT22;29440;48.208;11.162;2022-07-19T02:56:42;16.60;93.00
43810;DHT22;29440;48.208;11.162;2022-07-19T02:59:07;16.60;92.70
43810;DHT22;29440;48.208;11.162;2022-07-19T03:01:33;16.50;92.70
43810;DHT22;29440;48.208;11.162;2022-07-19T03:03:59;16.50;92.60
43810;DHT22;29440;48.208;11.162;2022-07-19T03:06:25;16.50;93.00
43810;DHT22;29440;48.208;11.162;2022-07-19T03:08:51;16.50;93.10
43810;DHT22;29440;48.208;11.162;2022-07-19T03:11:17;16.50;93.00
43810;DHT22;29440;48.208;11.162;2022-07-19T03:13:42;16.50;93.10
43810;DHT22;29440;48.208;11.162;2022-07-19T03:16:08;16.40;92.40
43810;DHT22;29440;48.208;11.162;2022-07-19T03:18:34;16.40;93.60
43810;DHT22;29440;48.208;11.162;2022-07-19T03:21:00;16.40;93.10
43810;DHT22;29440;48.208;11.162;2022-07-19T03:23:33;16.50;94.40
43810;DHT22;29440;48.208;11.162;2022-07-19T03:25:59;16.40;94.20
43810;DHT22;29440;48.208;11.162;2022-07-19T03:28:25;16.40;94.10
43810;DHT22;29440;48.208;11.162;2022-07-19T03:30:51;16.50;93.80
43810;DHT22;29440;48.208;11.162;2022-07-19T03:33:17;16.40;93.30
43810;DHT22;29440;48.208;11.162;2022-07-19T03:35:43;16.30;93.70
43810;DHT22;29440;48.208;11.162;2022-07-19T03:38:10;16.30;94.00
43810;DHT22;29440;48.208;11.162;2022-07-19T03:40:36;16.30;95.40
43810;DHT22;29440;48.208;11.162;2022-07-19T03:43:02;16.30;93.80
43810;DHT22;29440;48.208;11.162;2022-07-19T03:45:27;16.30;94.10
43810;DHT22;29440;48.208;11.162;2022-07-19T03:47:53;16.30;94.00
43810;DHT22;29440;48.208;11.162;2022-07-19T03:50:19;16.30;93.70
43810;DHT22;29440;48.208;11.162;2022-07-19T03:52:44;16.20;93.60
43810;DHT22;29440;48.208;11.162;2022-07-19T03:55:10;16.20;94.60
43810;DHT22;29440;48.208;11.162;2022-07-19T03:57:35;16.10;95.70
43810;DHT22;29440;48.208;11.162;2022-07-19T04:00:01;16.10;96.70
43810;DHT22;29440;48.208;11.162;2022-07-19T04:02:26;16.00;96.50
43810;DHT22;29440;48.208;11.162;2022-07-19T04:04:52;15.90;96.50
43810;DHT22;29440;48.208;11.162;2022-07-19T04:07:18;15.90;97.00
43810;DHT22;29440;48.208;11.162;2022-07-19T04:09:43;15.90;97.50
43810;DHT22;29440;48.208;11.162;2022-07-19T04:12:09;15.80;98.20
43810;DHT22;29440;48.208;11.162;2022-07-19T04:14:34;15.80;98.40
43810;DHT22;29440;48.208;11.162;2022-07-19T04:17:00;15.70;98.60
43810;DHT22;29440;48.208;11.162;2022-07-19T04:19:25;15.80;97.00
43810;DHT22;29440;48.208;11.162;2022-07-19T04:21:51;15.80;96.70
43810;DHT22;29440;48.208;11.162;2022-07-19T04:24:16;15.90;96.30
43810;DHT22;29440;48.208;11.162;2022-07-19T04:26:42;16.00;97.50
43810;DHT22;29440;48.208;11.162;2022-07-19T04:29:07;16.00;96.00
43810;DHT22;29440;48.208;11.162;2022-07-19T04:31:33;16.10;95.90
43810;DHT22;29440;48.208;11.162;2022-07-19T04:33:59;16.10;96.20
43810;DHT22;29440;48.208;11.162;2022-07-19T04:36:24;16.20;96.50
43810;DHT22;29440;48.208;11.162;2022-07-19T04:38:50;16.30;95.50
43810;DHT22;29440;48.208;11.162;2022-07-19T04:41:15;16.40;96.10
43810;DHT22;29440;48.208;11.162;2022-07-19T04:43:41;16.50;95.60
43810;DHT22;29440;48.208;11.162;2022-07-19T04:46:06;16.50;94.70
43810;DHT22;29440;48.208;11.162;2022-07-19T04:48:33;16.70;94.20
43810;DHT22;29440;48.208;11.162;2022-07-19T04:50:58;16.80;94.60
43810;DHT22;29440;48.208;11.162;2022-07-19T04:53:24;16.90;94.70
43810;DHT22;29440;48.208;11.162;2022-07-19T04:55:49;17.00;94.50
43810;DHT22;29440;48.208;11.162;2022-07-19T04:58:15;17.10;94.90
43810;DHT22;29440;48.208;11.162;2022-07-19T05:00:40;17.20;94.70
43810;DHT22;29440;48.208;11.162;2022-07-19T05:03:06;17.30;94.50
43810;DHT22;29440;48.208;11.162;2022-07-19T05:05:31;17.40;94.60
43810;DHT22;29440;48.208;11.162;2022-07-19T05:07:57;17.50;96.40
43810;DHT22;29440;48.208;11.162;2022-07-19T05:10:22;17.60;95.90
43810;DHT22;29440;48.208;11.162;2022-07-19T05:12:48;17.60;95.70
43810;DHT22;29440;48.208;11.162;2022-07-19T05:15:14;17.70;95.40
43810;DHT22;29440;48.208;11.162;2022-07-19T05:17:40;17.80;95.40
43810;DHT22;29440;48.208;11.162;2022-07-19T05:20:06;17.80;95.60
43810;DHT22;29440;48.208;11.162;2022-07-19T05:22:32;17.90;95.80
43810;DHT22;29440;48.208;11.162;2022-07-19T05:24:58;17.90;96.40
43810;DHT22;29440;48.208;11.162;2022-07-19T05:27:24;18.00;95.70
43810;DHT22;29440;48.208;11.162;2022-07-19T05:29:50;18.00;95.90
43810;DHT22;29440;48.208;11.162;2022-07-19T05:32:16;18.10;95.60
43810;DHT22;29440;48.208;11.162;2022-07-19T05:34:42;18.10;96.00
43810;DHT22;29440;48.208;11.162;2022-07-19T05:37:07;18.20;95.50
43810;DHT22;29440;48.208;11.162;2022-07-19T05:39:33;18.20;95.50
43810;DHT22;29440;48.208;11.162;2022-07-19T05:41:58;18.40;95.80
43810;DHT22;29440;48.208;11.162;2022-07-19T05:44:24;18.50;95.30
43810;DHT22;29440;48.208;11.162;2022-07-19T05:46:49;18.60;95.20
43810;DHT22;29440;48.208;11.162;2022-07-19T05:49:15;18.90;95.00
43810;DHT22;29440;48.208;11.162;2022-07-19T05:51:41;19.50;94.70
43810;DHT22;29440;48.208;11.162;2022-07-19T05:54:07;20.30;93.60
43810;DHT22;29440;48.208;11.162;2022-07-19T05:56:33;21.40;92.20
43810;DHT22;29440;48.208;11.162;2022-07-19T05:58:58;22.60;89.70
43810;DHT22;29440;48.208;11.162;2022-07-19T06:01:24;24.10;84.00
43810;DHT22;29440;48.208;11.162;2022-07-19T06:03:58;25.40;78.50
43810;DHT22;29440;48.208;11.162;2022-07-19T06:06:26;26.70;72.30
43810;DHT22;29440;48.208;11.162;2022-07-19T06:08:52;27.90;69.40
43810;DHT22;29440;48.208;11.162;2022-07-19T06:11:17;28.80;65.30
43810;DHT22;29440;48.208;11.162;2022-07-19T06:13:45;30.00;62.00
43810;DHT22;29440;48.208;11.162;2022-07-19T06:16:10;30.90;57.80
43810;DHT22;29440;48.208;11.162;2022-07-19T06:18:37;31.80;56.40
43810;DHT22;29440;48.208;11.162;2022-07-19T06:21:06;32.70;54.80
43810;DHT22;29440;48.208;11.162;2022-07-19T06:23:32;33.10;52.70
43810;DHT22;29440;48.208;11.162;2022-07-19T06:25:58;33.60;51.70
43810;DHT22;29440;48.208;11.162;2022-07-19T06:28:24;34.20;51.10
43810;DHT22;29440;48.208;11.162;2022-07-19T06:30:50;34.80;49.90
43810;DHT22;29440;48.208;11.162;2022-07-19T06:33:16;35.10;48.40
43810;DHT22;29440;48.208;11.162;2022-07-19T06:35:42;35.60;48.20
43810;DHT22;29440;48.208;11.162;2022-07-19T06:38:08;36.00;47.70
43810;DHT22;29440;48.208;11.162;2022-07-19T06:40:33;36.50;46.10
43810;DHT22;29440;48.208;11.162;2022-07-19T06:42:59;36.40;45.80
43810;DHT22;29440;48.208;11.162;2022-07-19T06:45:25;37.00;45.20
43810;DHT22;29440;48.208;11.162;2022-07-19T06:47:50;37.20;44.30
43810;DHT22;29440;48.208;11.162;2022-07-19T06:50:19;37.50;43.60
43810;DHT22;29440;48.208;11.162;2022-07-19T06:52:45;37.60;42.90
43810;DHT22;29440;48.208;11.162;2022-07-19T06:55:11;38.00;41.20
43810;DHT22;29440;48.208;11.162;2022-07-19T06:57:37;37.50;42.70
43810;DHT22;29440;48.208;11.162;2022-07-19T07:00:04;37.90;41.60
43810;DHT22;29440;48.208;11.162;2022-07-19T07:02:31;37.60;42.10
43810;DHT22;29440;48.208;11.162;2022-07-19T07:04:56;37.50;43.30
43810;DHT22;29440;48.208;11.162;2022-07-19T07:07:22;37.60;42.30
43810;DHT22;29440;48.208;11.162;2022-07-19T07:09:47;38.10;42.10
43810;DHT22;29440;48.208;11.162;2022-07-19T07:12:13;38.10;40.80
43810;DHT22;29440;48.208;11.162;2022-07-19T07:14:38;38.00;40.60
43810;DHT22;29440;48.208;11.162;2022-07-19T07:17:04;38.00;40.10
43810;DHT22;29440;48.208;11.162;2022-07-19T07:19:30;37.40;41.00
43810;DHT22;29440;48.208;11.162;2022-07-19T07:21:55;37.60;40.20
43810;DHT22;29440;48.208;11.162;2022-07-19T07:24:23;37.20;41.20
43810;DHT22;29440;48.208;11.162;2022-07-19T07:26:48;37.10;41.00
43810;DHT22;29440;48.208;11.162;2022-07-19T07:29:14;37.10;40.70
43810;DHT22;29440;48.208;11.162;2022-07-19T07:31:39;37.10;40.90
43810;DHT22;29440;48.208;11.162;2022-07-19T07:34:05;36.80;41.40
43810;DHT22;29440;48.208;11.162;2022-07-19T07:36:30;36.50;42.70
43810;DHT22;29440;48.208;11.162;2022-07-19T07:38:56;36.20;42.70
43810;DHT22;29440;48.208;11.162;2022-07-19T07:41:21;35.80;41.90
43810;DHT22;29440;48.208;11.162;2022-07-19T07:43:47;35.40;43.60
43810;DHT22;29440;48.208;11.162;2022-07-19T07:46:12;35.00;44.90
43810;DHT22;29440;48.208;11.162;2022-07-19T07:48:38;34.60;45.30
43810;DHT22;29440;48.208;11.162;2022-07-19T07:51:03;34.10;45.60
43810;DHT22;29440;48.208;11.162;2022-07-19T07:53:29;33.90;46.50
43810;DHT22;29440;48.208;11.162;2022-07-19T07:55:56;33.50;46.70
43810;DHT22;29440;48.208;11.162;2022-07-19T07:58:21;33.00;47.10
43810;DHT22;29440;48.208;11.162;2022-07-19T08:00:47;32.40;47.30
43810;DHT22;29440;48.208;11.162;2022-07-19T08:03:12;31.90;48.40
43810;DHT22;29440;48.208;11.162;2022-07-19T08:05:38;31.50;48.60
43810;DHT22;29440;48.208;11.162;2022-07-19T08:08:04;31.30;48.80
43810;DHT22;29440;48.208;11.162;2022-07-19T08:10:31;31.00;49.30
43810;DHT22;29440;48.208;11.162;2022-07-19T08:12:58;30.80;50.10
43810;DHT22;29440;48.208;11.162;2022-07-19T08:15:24;30.60;50.20
43810;DHT22;29440;48.208;11.162;2022-07-19T08:17:49;30.50;49.90
43810;DHT22;29440;48.208;11.162;2022-07-19T08:20:15;30.40;50.20
43810;DHT22;29440;48.208;11.162;2022-07-19T08:22:41;30.30;49.40
43810;DHT22;29440;48.208;11.162;2022-07-19T08:25:07;30.10;49.30
43810;DHT22;29440;48.208;11.162;2022-07-19T08:27:33;30.10;49.70
43810;DHT22;29440;48.208;11.162;2022-07-19T08:29:59;30.00;49.80
43810;DHT22;29440;48.208;11.162;2022-07-19T08:32:24;29.80;50.10
43810;DHT22;29440;48.208;11.162;2022-07-19T08:34:50;29.80;50.50
43810;DHT22;29440;48.208;11.162;2022-07-19T08:37:16;29.80;51.10
43810;DHT22;29440;48.208;11.162;2022-07-19T08:39:41;29.80;51.70
43810;DHT22;29440;48.208;11.162;2022-07-19T08:42:07;29.80;49.70
43810;DHT22;29440;48.208;11.162;2022-07-19T08:44:34;29.80;50.00
43810;DHT22;29440;48.208;11.162;2022-07-19T08:47:01;29.60;50.50
43810;DHT22;29440;48.208;11.162;2022-07-19T08:49:27;29.50;49.70
43810;DHT22;29440;48.208;11.162;2022-07-19T08:51:53;29.50;50.70
43810;DHT22;29440;48.208;11.162;2022-07-19T08:54:18;29.50;49.10
43810;DHT22;29440;48.208;11.162;2022-07-19T08:56:44;29.50;49.30
43810;DHT22;29440;48.208;11.162;2022-07-19T08:59:28;29.50;48.90
43810;DHT22;29440;48.208;11.162;2022-07-19T09:01:56;29.40;48.80
43810;DHT22;29440;48.208;11.162;2022-07-19T09:04:22;29.50;48.40
43810;DHT22;29440;48.208;11.162;2022-07-19T09:06:55;29.40;48.40
43810;DHT22;29440;48.208;11.162;2022-07-19T09:09:32;29.50;49.60
43810;DHT22;29440;48.208;11.162;2022-07-19T09:12:00;29.50;50.20
43810;DHT22;29440;48.208;11.162;2022-07-19T09:14:28;29.60;49.50
43810;DHT22;29440;48.208;11.162;2022-07-19T09:17:02;29.60;49.00
43810;DHT22;29440;48.208;11.162;2022-07-19T09:19:31;29.70;48.40
43810;DHT22;29440;48.208;11.162;2022-07-19T09:22:08;29.70;48.20
43810;DHT22;29440;48.208;11.162;2022-07-19T09:24:39;29.60;48.60
43810;DHT22;29440;48.208;11.162;2022-07-19T09:27:07;29.70;49.50
43810;DHT22;29440;48.208;11.162;2022-07-19T09:29:36;29.90;49.40
43810;DHT22;29440;48.208;11.162;2022-07-19T09:34:42;30.20;49.20
43810;DHT22;29440;48.208;11.162;2022-07-19T09:37:18;30.20;48.70
43810;DHT22;29440;48.208;11.162;2022-07-19T09:39:50;30.30;49.00
43810;DHT22;29440;48.208;11.162;2022-07-19T09:42:24;30.40;48.90
43810;DHT22;29440;48.208;11.162;2022-07-19T09:45:08;30.40;48.40
43810;DHT22;29440;48.208;11.162;2022-07-19T09:47:37;30.40;50.80
43810;DHT22;29440;48.208;11.162;2022-07-19T09:50:09;30.50;48.50
43810;DHT22;29440;48.208;11.162;2022-07-19T09:52:35;30.50;48.50
43810;DHT22;29440;48.208;11.162;2022-07-19T09:55:05;30.70;48.20
43810;DHT22;29440;48.208;11.162;2022-07-19T09:57:36;30.80;48.50
43810;DHT22;29440;48.208;11.162;2022-07-19T10:00:04;30.80;47.60
43810;DHT22;29440;48.208;11.162;2022-07-19T10:02:37;30.80;47.50
43810;DHT22;29440;48.208;11.162;2022-07-19T10:05:04;30.90;47.70
43810;DHT22;29440;48.208;11.162;2022-07-19T10:07:31;30.90;47.80
43810;DHT22;29440;48.208;11.162;2022-07-19T10:09:59;31.00;47.80
43810;DHT22;29440;48.208;11.162;2022-07-19T10:12:27;31.10;46.70
43810;DHT22;29440;48.208;11.162;2022-07-19T10:14:55;31.10;46.40
43810;DHT22;29440;48.208;11.162;2022-07-19T10:17:32;31.20;46.20
43810;DHT22;29440;48.208;11.162;2022-07-19T10:19:59;31.20;47.30
43810;DHT22;29440;48.208;11.162;2022-07-19T10:22:26;31.10;45.20
43810;DHT22;29440;48.208;11.162;2022-07-19T10:24:57;31.10;45.70
43810;DHT22;29440;48.208;11.162;2022-07-19T10:29:49;31.20;45.70
43810;DHT22;29440;48.208;11.162;2022-07-19T10:32:15;31.40;46.10
43810;DHT22;29440;48.208;11.162;2022-07-19T10:34:42;31.40;46.30
43810;DHT22;29440;48.208;11.162;2022-07-19T10:37:08;31.40;44.60
43810;DHT22;29440;48.208;11.162;2022-07-19T10:39:36;31.30;43.90
43810;DHT22;29440;48.208;11.162;2022-07-19T10:42:13;31.40;44.90
43810;DHT22;29440;48.208;11.162;2022-07-19T10:47:21;31.60;43.20
43810;DHT22;29440;48.208;11.162;2022-07-19T10:49:48;31.70;42.90
43810;DHT22;29440;48.208;11.162;2022-07-19T10:52:36;31.70;44.00
43810;DHT22;29440;48.208;11.162;2022-07-19T10:58:10;31.70;43.90
43810;DHT22;29440;48.208;11.162;2022-07-19T11:00:48;31.90;44.80
43810;DHT22;29440;48.208;11.162;2022-07-19T11:03:27;31.90;44.10
43810;DHT22;29440;48.208;11.162;2022-07-19T11:06:01;32.10;43.50
43810;DHT22;29440;48.208;11.162;2022-07-19T11:08:33;32.10;43.70
43810;DHT22;29440;48.208;11.162;2022-07-19T11:11:06;32.10;43.20
43810;DHT22;29440;48.208;11.162;2022-07-19T11:13:33;32.30;43.20
43810;DHT22;29440;48.208;11.162;2022-07-19T11:16:00;32.30;42.30
43810;DHT22;29440;48.208;11.162;2022-07-19T11:18:28;32.30;42.10
43810;DHT22;29440;48.208;11.162;2022-07-19T11:20:57;32.30;42.70
43810;DHT22;29440;48.208;11.162;2022-07-19T11:23:31;32.30;42.60
43810;DHT22;29440;48.208;11.162;2022-07-19T11:26:26;32.40;42.60
43810;DHT22;29440;48.208;11.162;2022-07-19T11:29:02;32.40;42.70
43810;DHT22;29440;48.208;11.162;2022-07-19T11:31:28;32.30;42.70
43810;DHT22;29440;48.208;11.162;2022-07-19T11:34:00;32.60;41.90
43810;DHT22;29440;48.208;11.162;2022-07-19T11:36:30;32.70;41.30
43810;DHT22;29440;48.208;11.162;2022-07-19T11:38:58;32.70;42.50
43810;DHT22;29440;48.208;11.162;2022-07-19T11:41:30;32.70;42.40
43810;DHT22;29440;48.208;11.162;2022-07-19T11:44:07;32.80;42.00
43810;DHT22;29440;48.208;11.162;2022-07-19T11:46:36;32.80;42.10
43810;DHT22;29440;48.208;11.162;2022-07-19T11:49:09;32.80;41.20
43810;DHT22;29440;48.208;11.162;2022-07-19T11:51:35;32.80;41.40
43810;DHT22;29440;48.208;11.162;2022-07-19T11:54:03;32.70;41.60
43810;DHT22;29440;48.208;11.162;2022-07-19T11:56:31;32.80;41.20
43810;DHT22;29440;48.208;11.162;2022-07-19T11:59:00;32.80;41.10
43810;DHT22;29440;48.208;11.162;2022-07-19T12:01:32;32.80;41.80
43810;DHT22;29440;48.208;11.162;2022-07-19T12:04:24;32.90;41.50
43810;DHT22;29440;48.208;11.162;2022-07-19T12:06:50;32.90;42.50
43810;DHT22;29440;48.208;11.162;2022-07-19T12:09:26;32.80;41.10
43810;DHT22;29440;48.208;11.162;2022-07-19T12:11:54;32.90;41.90
43810;DHT22;29440;48.208;11.162;2022-07-19T12:14:31;33.00;41.60
43810;DHT22;29440;48.208;11.162;2022-07-19T12:17:19;33.00;41.60
43810;DHT22;29440;48.208;11.162;2022-07-19T12:19:50;33.00;41.40
43810;DHT22;29440;48.208;11.162;2022-07-19T12:22:33;33.20;41.80
43810;DHT22;29440;48.208;11.162;2022-07-19T12:25:00;33.20;43.60
43810;DHT22;29440;48.208;11.162;2022-07-19T12:27:25;33.20;41.60
43810;DHT22;29440;48.208;11.162;2022-07-19T12:29:54;33.30;41.70
43810;DHT22;29440;48.208;11.162;2022-07-19T12:32:37;33.20;41.60
43810;DHT22;29440;48.208;11.162;2022-07-19T12:35:13;33.20;41.60
43810;DHT22;29440;48.208;11.162;2022-07-19T12:37:47;33.40;42.30
43810;DHT22;29440;48.208;11.162;2022-07-19T12:40:25;33.30;42.10
43810;DHT22;29440;48.208;11.162;2022-07-19T12:43:12;33.40;41.60
43810;DHT22;29440;48.208;11.162;2022-07-19T12:45:44;33.60;42.80
43810;DHT22;29440;48.208;11.162;2022-07-19T12:48:14;33.50;41.40
43810;DHT22;29440;48.208;11.162;2022-07-19T12:50:49;33.50;41.10
43810;DHT22;29440;48.208;11.162;2022-07-19T12:53:17;33.60;40.40
43810;DHT22;29440;48.208;11.162;2022-07-19T12:55:43;33.60;40.80
43810;DHT22;29440;48.208;11.162;2022-07-19T12:58:10;33.60;41.60
43810;DHT22;29440;48.208;11.162;2022-07-19T13:00:38;33.60;41.50
43810;DHT22;29440;48.208;11.162;2022-07-19T13:03:05;33.70;41.00
43810;DHT22;29440;48.208;11.162;2022-07-19T13:05:32;33.80;40.50
43810;DHT22;29440;48.208;11.162;2022-07-19T13:07:58;33.70;41.30
43810;DHT22;29440;48.208;11.162;2022-07-19T13:10:25;33.60;40.80
43810;DHT22;29440;48.208;11.162;2022-07-19T13:12:51;33.50;41.10
43810;DHT22;29440;48.208;11.162;2022-07-19T13:15:17;33.60;41.40
43810;DHT22;29440;48.208;11.162;2022-07-19T13:17:46;33.70;41.60
43810;DHT22;29440;48.208;11.162;2022-07-19T13:20:13;33.70;40.90
43810;DHT22;29440;48.208;11.162;2022-07-19T13:22:40;33.70;41.70
43810;DHT22;29440;48.208;11.162;2022-07-19T13:25:07;33.80;41.40
43810;DHT22;29440;48.208;11.162;2022-07-19T13:27:33;33.70;40.80
43810;DHT22;29440;48.208;11.162;2022-07-19T13:29:58;33.90;42.30
43810;DHT22;29440;48.208;11.162;2022-07-19T13:32:27;33.90;40.90
43810;DHT22;29440;48.208;11.162;2022-07-19T13:34:53;33.90;40.70
43810;DHT22;29440;48.208;11.162;2022-07-19T13:37:21;33.90;40.20
43810;DHT22;29440;48.208;11.162;2022-07-19T13:39:52;33.90;40.20
43810;DHT22;29440;48.208;11.162;2022-07-19T13:42:18;33.90;40.20
43810;DHT22;29440;48.208;11.162;2022-07-19T13:44:44;33.80;39.40
43810;DHT22;29440;48.208;11.162;2022-07-19T13:47:09;33.80;39.20
43810;DHT22;29440;48.208;11.162;2022-07-19T13:49:36;33.90;39.60
43810;DHT22;29440;48.208;11.162;2022-07-19T13:52:02;33.90;39.40
43810;DHT22;29440;48.208;11.162;2022-07-19T13:54:28;33.80;38.90
43810;DHT22;29440;48.208;11.162;2022-07-19T13:56:55;33.90;40.30
43810;DHT22;29440;48.208;11.162;2022-07-19T13:59:24;34.00;40.00
43810;DHT22;29440;48.208;11.162;2022-07-19T14:01:50;33.90;39.70
43810;DHT22;29440;48.208;11.162;2022-07-19T14:04:15;34.10;39.80
43810;DHT22;29440;48.208;11.162;2022-07-19T14:06:41;34.00;40.30
43810;DHT22;29440;48.208;11.162;2022-07-19T14:09:07;34.00;39.90
43810;DHT22;29440;48.208;11.162;2022-07-19T14:11:33;34.10;40.40
43810;DHT22;29440;48.208;11.162;2022-07-19T14:14:00;34.20;40.30
43810;DHT22;29440;48.208;11.162;2022-07-19T14:16:29;34.20;40.30
43810;DHT22;29440;48.208;11.162;2022-07-19T14:18:57;34.10;40.50
43810;DHT22;29440;48.208;11.162;2022-07-19T14:21:22;34.10;40.90
43810;DHT22;29440;48.208;11.162;2022-07-19T14:23:49;34.20;40.70
43810;DHT22;29440;48.208;11.162;2022-07-19T14:26:17;34.20;40.90
43810;DHT22;29440;48.208;11.162;2022-07-19T14:28:42;34.30;40.80
43810;DHT22;29440;48.208;11.162;2022-07-19T14:31:08;34.30;40.40
43810;DHT22;29440;48.208;11.162;2022-07-19T14:33:38;34.20;40.80
43810;DHT22;29440;48.208;11.162;2022-07-19T14:36:04;34.10;40.90
43810;DHT22;29440;48.208;11.162;2022-07-19T14:38:30;33.90;40.80
43810;DHT22;29440;48.208;11.162;2022-07-19T14:40:55;33.90;41.20
43810;DHT22;29440;48.208;11.162;2022-07-19T14:43:21;33.80;41.00
43810;DHT22;29440;48.208;11.162;2022-07-19T14:45:47;33.70;41.20
43810;DHT22;29440;48.208;11.162;2022-07-19T14:48:12;33.70;41.50
43810;DHT22;29440;48.208;11.162;2022-07-19T14:50:41;33.70;41.50
43810;DHT22;29440;48.208;11.162;2022-07-19T14:53:09;33.70;41.80
43810;DHT22;29440;48.208;11.162;2022-07-19T14:55:35;33.60;41.60
43810;DHT22;29440;48.208;11.162;2022-07-19T14:58:01;33.60;42.00
43810;DHT22;29440;48.208;11.162;2022-07-19T15:00:27;33.70;42.40
43810;DHT22;29440;48.208;11.162;2022-07-19T15:02:53;33.70;42.00
43810;DHT22;29440;48.208;11.162;2022-07-19T15:05:19;33.80;42.40
43810;DHT22;29440;48.208;11.162;2022-07-19T15:07:45;33.60;41.70
43810;DHT22;29440;48.208;11.162;2022-07-19T15:10:23;33.90;41.40
43810;DHT22;29440;48.208;11.162;2022-07-19T15:12:49;33.90;41.60
43810;DHT22;29440;48.208;11.162;2022-07-19T15:15:15;33.90;41.60
43810;DHT22;29440;48.208;11.162;2022-07-19T15:17:40;34.10;41.40
43810;DHT22;29440;48.208;11.162;2022-07-19T15:20:07;33.90;40.60
43810;DHT22;29440;48.208;11.162;2022-07-19T15:22:35;33.60;41.30
43810;DHT22;29440;48.208;11.162;2022-07-19T15:25:06;33.80;41.90
43810;DHT22;29440;48.208;11.162;2022-07-19T15:27:32;33.80;40.80